createdAt,value
2018-05-31T00:00:59.351Z,19.41
2018-05-31T00:01:59.933Z,19.40
2018-05-31T00:03:00.497Z,19.33
2018-05-31T00:04:01.061Z,19.41
2018-05-31T00:05:01.626Z,19.33
2018-05-31T00:06:02.212Z,19.29
2018-05-31T00:07:02.775Z,19.24
2018-05-31T00:08:03.340Z,19.27
2018-05-31T00:09:03.912Z,19.24
2018-05-31T00:10:04.472Z,19.30
2018-05-31T00:11:05.022Z,19.24
2018-05-31T00:12:05.578Z,19.33
2018-05-31T00:13:06.129Z,19.25
2018-05-31T00:14:06.676Z,19.22
2018-05-31T00:15:07.221Z,19.25
2018-05-31T00:16:07.772Z,19.30
2018-05-31T00:17:08.324Z,19.19
2018-05-31T00:18:08.869Z,19.29
2018-05-31T00:19:09.424Z,19.31
2018-05-31T00:20:09.974Z,19.29
2018-05-31T00:21:10.518Z,19.12
2018-05-31T00:22:11.067Z,19.29
2018-05-31T00:23:11.620Z,19.14
2018-05-31T00:24:12.171Z,19.19
2018-05-31T00:25:12.727Z,19.04
2018-05-31T00:26:13.275Z,19.02
2018-05-31T00:27:13.824Z,19.02
2018-05-31T00:28:14.375Z,19.02
2018-05-31T00:29:14.926Z,19.04
2018-05-31T00:30:15.477Z,19.06
2018-05-31T00:31:16.028Z,19.00
2018-05-31T00:32:16.577Z,19.02
2018-05-31T00:33:17.125Z,19.02
2018-05-31T00:34:17.682Z,19.06
2018-05-31T00:35:18.231Z,18.99
2018-05-31T00:36:18.786Z,19.04
2018-05-31T00:37:19.333Z,19.04
2018-05-31T00:38:19.882Z,19.04
2018-05-31T00:39:20.434Z,18.98
2018-05-31T00:40:20.981Z,19.02
2018-05-31T00:41:21.527Z,18.98
2018-05-31T00:42:22.080Z,19.09
2018-05-31T00:43:22.633Z,18.96
2018-05-31T00:44:23.179Z,18.95
2018-05-31T00:45:23.733Z,18.95
2018-05-31T00:46:24.282Z,19.02
2018-05-31T00:47:24.833Z,18.99
2018-05-31T00:48:25.382Z,19.07
2018-05-31T00:49:25.928Z,19.02
2018-05-31T00:50:26.483Z,19.02
2018-05-31T00:51:27.026Z,19.14
2018-05-31T00:52:27.584Z,19.02
2018-05-31T00:53:28.130Z,19.02
2018-05-31T00:54:28.676Z,19.07
2018-05-31T00:55:29.229Z,18.96
2018-05-31T00:56:29.779Z,19.06
2018-05-31T00:57:30.331Z,18.95
2018-05-31T00:58:30.882Z,18.90
2018-05-31T00:59:31.427Z,18.83
2018-05-31T01:00:31.978Z,18.81
2018-05-31T01:01:32.523Z,18.77
2018-05-31T01:02:33.081Z,18.84
2018-05-31T01:03:33.633Z,18.81
2018-05-31T01:04:34.182Z,18.80
2018-05-31T01:05:34.735Z,18.68
2018-05-31T01:06:35.285Z,18.74
2018-05-31T01:07:35.838Z,18.81
2018-05-31T01:08:36.392Z,18.81
2018-05-31T01:09:36.948Z,18.80
2018-05-31T01:10:37.498Z,18.80
2018-05-31T01:11:38.047Z,18.80
2018-05-31T01:12:38.596Z,18.83
2018-05-31T01:13:39.145Z,18.89
2018-05-31T01:14:39.691Z,18.83
2018-05-31T01:15:40.242Z,18.83
2018-05-31T01:16:40.796Z,18.81
2018-05-31T01:17:41.352Z,18.80
2018-05-31T01:18:41.900Z,18.80
2018-05-31T01:19:42.452Z,18.78
2018-05-31T01:20:43.002Z,18.83
2018-05-31T01:21:43.550Z,18.80
2018-05-31T01:22:44.103Z,18.77
2018-05-31T01:23:44.652Z,18.80
2018-05-31T01:24:45.205Z,18.77
2018-05-31T01:25:45.764Z,18.80
2018-05-31T01:26:46.320Z,18.83
2018-05-31T01:27:46.872Z,18.78
2018-05-31T01:28:47.423Z,18.69
2018-05-31T01:29:47.972Z,18.66
2018-05-31T01:30:48.519Z,18.68
2018-05-31T01:31:49.072Z,18.68
2018-05-31T01:32:49.624Z,18.62
2018-05-31T01:33:50.176Z,18.69
2018-05-31T01:34:50.733Z,18.65
2018-05-31T01:35:51.285Z,18.63
2018-05-31T01:36:51.837Z,18.55
2018-05-31T01:37:52.392Z,18.43
2018-05-31T01:38:52.935Z,18.35
2018-05-31T01:39:53.485Z,18.37
2018-05-31T01:40:54.038Z,18.41
2018-05-31T01:41:54.582Z,18.40
2018-05-31T01:42:55.141Z,18.38
2018-05-31T01:43:55.692Z,18.56
2018-05-31T01:44:56.239Z,18.68
2018-05-31T01:45:56.788Z,18.66
2018-05-31T01:46:57.357Z,18.81
2018-05-31T01:47:57.890Z,18.84
2018-05-31T01:48:58.444Z,18.83
2018-05-31T01:49:58.993Z,18.96
2018-05-31T01:50:59.545Z,18.98
2018-05-31T01:52:00.101Z,19.02
2018-05-31T01:53:00.652Z,19.09
2018-05-31T01:54:01.201Z,19.04
2018-05-31T01:55:01.753Z,19.12
2018-05-31T01:56:02.305Z,19.12
2018-05-31T01:57:02.870Z,19.19
2018-05-31T01:58:03.425Z,19.19
2018-05-31T01:59:04.038Z,19.21
2018-05-31T02:00:04.586Z,19.27
2018-05-31T02:01:05.133Z,19.31
2018-05-31T02:02:05.684Z,19.34
2018-05-31T02:03:06.241Z,19.39
2018-05-31T02:04:06.788Z,19.40
2018-05-31T02:05:07.339Z,19.40
2018-05-31T02:06:07.898Z,19.40
2018-05-31T02:07:08.453Z,19.40
2018-05-31T02:08:09.007Z,19.39
2018-05-31T02:09:09.559Z,19.41
2018-05-31T02:10:10.111Z,19.41
2018-05-31T02:11:10.661Z,19.44
2018-05-31T02:12:11.213Z,19.47
2018-05-31T02:13:11.759Z,19.44
2018-05-31T02:14:12.308Z,19.36
2018-05-31T02:15:12.875Z,19.40
2018-05-31T02:16:13.413Z,19.36
2018-05-31T02:17:13.965Z,19.33
2018-05-31T02:18:14.517Z,19.30
2018-05-31T02:19:15.066Z,19.27
2018-05-31T02:20:15.616Z,19.29
2018-05-31T02:21:16.166Z,19.39
2018-05-31T02:22:16.712Z,19.27
2018-05-31T02:23:17.267Z,19.29
2018-05-31T02:24:17.812Z,19.33
2018-05-31T02:25:18.365Z,19.29
2018-05-31T02:26:18.913Z,19.33
2018-05-31T02:27:19.462Z,19.39
2018-05-31T02:28:20.006Z,19.29
2018-05-31T02:29:20.557Z,19.41
2018-05-31T02:30:21.110Z,19.34
2018-05-31T02:31:21.660Z,19.27
2018-05-31T02:32:22.215Z,19.27
2018-05-31T02:33:22.765Z,19.27
2018-05-31T02:34:23.318Z,19.33
2018-05-31T02:35:23.862Z,19.33
2018-05-31T02:36:24.420Z,19.34
2018-05-31T02:37:24.973Z,19.39
2018-05-31T02:38:25.522Z,19.36
2018-05-31T02:39:26.075Z,19.37
2018-05-31T02:40:26.624Z,19.39
2018-05-31T02:41:27.175Z,19.44
2018-05-31T02:42:27.728Z,19.39
2018-05-31T02:43:28.282Z,19.40
2018-05-31T02:44:28.836Z,19.36
2018-05-31T02:45:29.386Z,19.37
2018-05-31T02:46:29.939Z,19.44
2018-05-31T02:47:30.487Z,19.40
2018-05-31T02:48:31.041Z,19.36
2018-05-31T02:49:31.590Z,19.36
2018-05-31T02:50:32.140Z,19.36
2018-05-31T02:51:32.692Z,19.37
2018-05-31T02:52:33.245Z,19.44
2018-05-31T02:53:33.792Z,19.41
2018-05-31T02:54:34.344Z,19.51
2018-05-31T02:55:34.889Z,19.44
2018-05-31T02:56:35.440Z,19.49
2018-05-31T02:57:35.992Z,19.51
2018-05-31T02:58:36.544Z,19.52
2018-05-31T02:59:37.097Z,19.47
2018-05-31T03:00:37.646Z,19.55
2018-05-31T03:01:38.200Z,19.44
2018-05-31T03:02:38.758Z,19.44
2018-05-31T03:03:39.307Z,19.51
2018-05-31T03:04:39.870Z,19.52
2018-05-31T03:05:40.413Z,19.52
2018-05-31T03:06:40.966Z,19.43
2018-05-31T03:07:41.571Z,19.59
2018-05-31T03:08:42.070Z,19.64
2018-05-31T03:09:42.627Z,19.59
2018-05-31T03:10:43.175Z,19.47
2018-05-31T03:11:43.721Z,19.52
2018-05-31T03:12:44.272Z,19.54
2018-05-31T03:13:44.823Z,19.51
2018-05-31T03:14:45.378Z,19.54
2018-05-31T03:15:45.929Z,19.47
2018-05-31T03:16:46.483Z,19.47
2018-05-31T03:17:47.041Z,19.54
2018-05-31T03:18:47.588Z,19.59
2018-05-31T03:19:48.135Z,19.59
2018-05-31T03:20:48.687Z,19.62
2018-05-31T03:21:49.245Z,19.59
2018-05-31T03:22:49.802Z,19.58
2018-05-31T03:23:50.357Z,19.66
2018-05-31T03:24:50.916Z,19.66
2018-05-31T03:25:51.470Z,19.66
2018-05-31T03:26:52.036Z,19.62
2018-05-31T03:27:52.577Z,19.74
2018-05-31T03:28:53.129Z,19.61
2018-05-31T03:29:53.678Z,19.64
2018-05-31T03:30:54.228Z,19.59
2018-05-31T03:31:54.784Z,19.59
2018-05-31T03:32:55.341Z,19.58
2018-05-31T03:33:55.899Z,19.59
2018-05-31T03:34:56.454Z,19.56
2018-05-31T03:35:57.010Z,19.59
2018-05-31T03:36:57.562Z,19.55
2018-05-31T03:37:58.118Z,19.61
2018-05-31T03:38:58.677Z,19.59
2018-05-31T03:39:59.229Z,19.59
2018-05-31T03:40:59.785Z,19.55
2018-05-31T03:42:00.337Z,19.49
2018-05-31T03:43:00.891Z,19.55
2018-05-31T03:44:01.452Z,19.58
2018-05-31T03:45:02.000Z,19.55
2018-05-31T03:46:02.551Z,19.61
2018-05-31T03:47:03.108Z,19.56
2018-05-31T03:48:03.662Z,19.51
2018-05-31T03:49:04.209Z,19.47
2018-05-31T03:50:04.763Z,19.49
2018-05-31T03:51:05.319Z,19.47
2018-05-31T03:52:05.884Z,19.47
2018-05-31T03:53:06.429Z,19.49
2018-05-31T03:54:06.982Z,19.47
2018-05-31T03:55:07.538Z,19.47
2018-05-31T03:56:08.094Z,19.49
2018-05-31T03:57:08.657Z,19.44
2018-05-31T03:58:09.209Z,19.47
2018-05-31T03:59:09.766Z,19.44
2018-05-31T04:00:10.320Z,19.51
2018-05-31T04:01:10.998Z,19.58
2018-05-31T04:02:11.556Z,19.62
2018-05-31T04:03:12.113Z,19.66
2018-05-31T04:04:12.671Z,19.62
2018-05-31T04:05:13.228Z,19.67
2018-05-31T04:06:13.782Z,19.77
2018-05-31T04:07:14.345Z,19.71
2018-05-31T04:08:14.899Z,19.81
2018-05-31T04:09:15.453Z,19.73
2018-05-31T04:10:16.005Z,19.84
2018-05-31T04:11:16.566Z,19.81
2018-05-31T04:12:17.126Z,19.77
2018-05-31T04:13:17.676Z,19.81
2018-05-31T04:14:18.230Z,19.89
2018-05-31T04:15:18.787Z,19.87
2018-05-31T04:16:19.341Z,19.85
2018-05-31T04:17:19.897Z,19.80
2018-05-31T04:18:20.454Z,19.79
2018-05-31T04:19:21.012Z,19.91
2018-05-31T04:20:21.568Z,19.89
2018-05-31T04:21:22.124Z,19.94
2018-05-31T04:22:22.679Z,20.03
2018-05-31T04:23:23.240Z,20.11
2018-05-31T04:24:23.790Z,20.17
2018-05-31T04:25:24.368Z,20.22
2018-05-31T04:26:24.903Z,20.21
2018-05-31T04:27:25.459Z,20.26
2018-05-31T04:28:26.024Z,20.32
2018-05-31T04:29:26.577Z,20.26
2018-05-31T04:30:27.143Z,20.31
2018-05-31T04:31:27.698Z,20.42
2018-05-31T04:32:28.259Z,20.36
2018-05-31T04:33:28.824Z,20.44
2018-05-31T04:34:29.385Z,20.39
2018-05-31T04:35:29.941Z,20.55
2018-05-31T04:36:30.538Z,20.59
2018-05-31T04:37:31.051Z,20.67
2018-05-31T04:38:31.609Z,20.66
2018-05-31T04:39:32.168Z,20.77
2018-05-31T04:40:32.725Z,20.82
2018-05-31T04:41:33.286Z,20.84
2018-05-31T04:42:33.867Z,20.91
2018-05-31T04:43:34.405Z,20.99
2018-05-31T04:44:34.960Z,20.98
2018-05-31T04:45:35.525Z,20.98
2018-05-31T04:46:36.214Z,20.96
2018-05-31T04:47:36.775Z,21.02
2018-05-31T04:48:37.334Z,21.07
2018-05-31T04:49:37.889Z,21.09
2018-05-31T04:50:38.449Z,21.20
2018-05-31T04:51:39.008Z,21.25
2018-05-31T04:52:39.569Z,21.39
2018-05-31T04:53:40.132Z,21.67
2018-05-31T04:54:40.696Z,21.79
2018-05-31T04:55:41.292Z,21.85
2018-05-31T04:56:41.842Z,21.85
2018-05-31T04:57:42.402Z,21.82
2018-05-31T04:58:42.964Z,21.77
2018-05-31T04:59:43.526Z,21.72
2018-05-31T05:00:44.093Z,21.82
2018-05-31T05:01:44.653Z,21.82
2018-05-31T05:02:45.218Z,21.89
2018-05-31T05:03:45.780Z,22.03
2018-05-31T05:04:46.343Z,22.05
2018-05-31T05:05:46.904Z,22.07
2018-05-31T05:06:47.460Z,21.96
2018-05-31T05:07:48.021Z,21.83
2018-05-31T05:08:48.580Z,21.86
2018-05-31T05:09:49.143Z,21.77
2018-05-31T05:10:49.707Z,21.80
2018-05-31T05:11:50.270Z,21.75
2018-05-31T05:12:50.836Z,21.76
2018-05-31T05:13:51.401Z,21.69
2018-05-31T05:14:51.960Z,21.65
2018-05-31T05:15:52.521Z,21.61
2018-05-31T05:16:53.084Z,21.72
2018-05-31T05:17:53.644Z,21.69
2018-05-31T05:18:54.198Z,21.64
2018-05-31T05:19:54.753Z,21.67
2018-05-31T05:20:55.336Z,21.57
2018-05-31T05:21:55.884Z,21.47
2018-05-31T05:22:56.443Z,21.47
2018-05-31T05:23:56.999Z,21.49
2018-05-31T05:24:57.585Z,21.49
2018-05-31T05:25:58.129Z,21.40
2018-05-31T05:26:58.689Z,21.33
2018-05-31T05:27:59.245Z,21.36
2018-05-31T05:28:59.808Z,21.37
2018-05-31T05:30:00.362Z,21.39
2018-05-31T05:31:00.920Z,21.36
2018-05-31T05:32:01.476Z,21.42
2018-05-31T05:33:02.034Z,21.32
2018-05-31T05:34:02.597Z,21.33
2018-05-31T05:35:03.152Z,21.25
2018-05-31T05:36:03.715Z,21.35
2018-05-31T05:37:04.276Z,21.32
2018-05-31T05:38:04.829Z,21.27
2018-05-31T05:39:05.393Z,21.28
2018-05-31T05:40:05.956Z,21.30
2018-05-31T05:41:06.514Z,21.35
2018-05-31T05:42:07.066Z,21.28
2018-05-31T05:43:07.623Z,21.30
2018-05-31T05:44:08.180Z,21.39
2018-05-31T05:45:08.742Z,21.30
2018-05-31T05:46:09.303Z,21.37
2018-05-31T05:47:09.863Z,21.39
2018-05-31T05:48:10.419Z,21.36
2018-05-31T05:49:10.974Z,21.40
2018-05-31T05:50:11.590Z,21.35
2018-05-31T05:51:12.089Z,21.37
2018-05-31T05:52:12.646Z,21.40
2018-05-31T05:53:13.202Z,21.43
2018-05-31T05:54:13.759Z,21.51
2018-05-31T05:55:14.318Z,21.58
2018-05-31T05:56:14.878Z,21.49
2018-05-31T05:57:15.436Z,21.51
2018-05-31T05:58:15.992Z,21.49
2018-05-31T05:59:16.552Z,21.37
2018-05-31T06:00:17.115Z,21.37
2018-05-31T06:01:17.676Z,21.39
2018-05-31T06:02:18.233Z,21.30
2018-05-31T06:03:18.802Z,21.32
2018-05-31T06:04:19.420Z,21.21
2018-05-31T06:05:19.919Z,21.21
2018-05-31T06:06:20.479Z,21.14
2018-05-31T06:07:21.035Z,21.18
2018-05-31T06:08:21.595Z,21.14
2018-05-31T06:09:22.156Z,21.05
2018-05-31T06:10:22.721Z,21.00
2018-05-31T06:11:23.278Z,20.88
2018-05-31T06:12:23.835Z,20.96
2018-05-31T06:13:24.397Z,20.96
2018-05-31T06:14:24.957Z,20.92
2018-05-31T06:15:25.544Z,21.12
2018-05-31T06:16:26.080Z,21.18
2018-05-31T06:17:26.633Z,21.20
2018-05-31T06:18:27.201Z,21.28
2018-05-31T06:19:27.758Z,21.39
2018-05-31T06:20:28.316Z,21.57
2018-05-31T06:21:28.886Z,21.45
2018-05-31T06:22:29.444Z,21.67
2018-05-31T06:23:30.002Z,21.67
2018-05-31T06:24:30.573Z,21.75
2018-05-31T06:25:31.111Z,21.62
2018-05-31T06:26:31.771Z,21.65
2018-05-31T06:27:32.217Z,21.65
2018-05-31T06:28:32.773Z,21.62
2018-05-31T06:29:33.353Z,21.60
2018-05-31T06:30:33.899Z,21.47
2018-05-31T06:31:34.459Z,21.52
2018-05-31T06:32:35.018Z,21.55
2018-05-31T06:33:35.636Z,21.47
2018-05-31T06:34:36.136Z,21.64
2018-05-31T06:35:36.690Z,21.64
2018-05-31T06:36:37.253Z,21.62
2018-05-31T06:37:37.811Z,21.65
2018-05-31T06:38:38.368Z,21.73
2018-05-31T06:39:38.926Z,21.72
2018-05-31T06:40:39.488Z,21.75
2018-05-31T06:41:40.039Z,21.75
2018-05-31T06:42:40.594Z,21.83
2018-05-31T06:43:41.152Z,21.91
2018-05-31T06:44:41.711Z,21.82
2018-05-31T06:45:42.271Z,21.83
2018-05-31T06:46:42.829Z,21.79
2018-05-31T06:47:43.385Z,21.86
2018-05-31T06:48:43.945Z,21.89
2018-05-31T06:49:44.507Z,21.86
2018-05-31T06:50:45.072Z,21.82
2018-05-31T06:51:45.619Z,21.85
2018-05-31T06:52:46.176Z,21.73
2018-05-31T06:53:46.738Z,21.77
2018-05-31T06:54:47.298Z,21.77
2018-05-31T06:55:47.853Z,21.76
2018-05-31T06:56:48.410Z,21.62
2018-05-31T06:57:48.969Z,21.51
2018-05-31T06:58:49.529Z,21.58
2018-05-31T06:59:50.089Z,21.51
2018-05-31T07:00:50.653Z,21.54
2018-05-31T07:01:51.202Z,21.54
2018-05-31T07:02:51.765Z,21.49
2018-05-31T07:03:52.324Z,21.54
2018-05-31T07:04:52.890Z,21.52
2018-05-31T07:05:53.454Z,21.42
2018-05-31T07:06:54.024Z,21.40
2018-05-31T07:07:54.571Z,21.21
2018-05-31T07:08:55.128Z,21.07
2018-05-31T07:09:55.687Z,21.06
2018-05-31T07:10:56.248Z,21.10
2018-05-31T07:11:56.806Z,21.15
2018-05-31T07:12:57.369Z,21.21
2018-05-31T07:13:57.928Z,21.24
2018-05-31T07:14:58.489Z,21.25
2018-05-31T07:15:59.116Z,21.40
2018-05-31T07:16:59.606Z,21.39
2018-05-31T07:18:00.167Z,21.47
2018-05-31T07:19:00.725Z,21.37
2018-05-31T07:20:01.290Z,21.43
2018-05-31T07:21:01.850Z,21.36
2018-05-31T07:22:02.404Z,21.46
2018-05-31T07:23:02.966Z,21.40
2018-05-31T07:24:03.532Z,21.36
2018-05-31T07:25:04.084Z,21.30
2018-05-31T07:26:04.651Z,21.39
2018-05-31T07:27:05.213Z,21.39
2018-05-31T07:28:05.767Z,21.27
2018-05-31T07:29:06.333Z,21.39
2018-05-31T07:30:06.897Z,21.39
2018-05-31T07:31:07.449Z,21.36
2018-05-31T07:32:08.014Z,21.40
2018-05-31T07:33:08.565Z,21.42
2018-05-31T07:34:09.127Z,21.54
2018-05-31T07:35:09.686Z,21.51
2018-05-31T07:36:10.260Z,21.51
2018-05-31T07:37:10.809Z,21.55
2018-05-31T07:38:11.365Z,21.62
2018-05-31T07:39:11.926Z,21.54
2018-05-31T07:40:12.490Z,21.51
2018-05-31T07:41:13.049Z,21.42
2018-05-31T07:42:13.610Z,21.42
2018-05-31T07:43:14.202Z,21.39
2018-05-31T07:44:14.749Z,21.36
2018-05-31T07:45:15.305Z,21.37
2018-05-31T07:46:15.865Z,21.39
2018-05-31T07:47:16.424Z,21.30
2018-05-31T07:48:16.980Z,21.32
2018-05-31T07:49:17.544Z,21.18
2018-05-31T07:50:18.102Z,21.15
2018-05-31T07:51:18.689Z,21.24
2018-05-31T07:52:19.217Z,21.24
2018-05-31T07:53:19.776Z,21.18
2018-05-31T07:54:20.338Z,21.12
2018-05-31T07:55:20.899Z,21.20
2018-05-31T07:56:21.463Z,21.10
2018-05-31T07:57:22.026Z,21.09
2018-05-31T07:58:22.605Z,20.96
2018-05-31T07:59:23.139Z,20.98
2018-05-31T08:00:23.698Z,20.91
2018-05-31T08:01:24.249Z,20.96
2018-05-31T08:02:24.824Z,20.99
2018-05-31T08:03:25.409Z,20.99
2018-05-31T08:04:25.947Z,20.95
2018-05-31T08:05:26.512Z,20.95
2018-05-31T08:06:27.071Z,20.91
2018-05-31T08:07:27.628Z,20.88
2018-05-31T08:08:28.189Z,20.96
2018-05-31T08:09:28.782Z,20.98
2018-05-31T08:10:29.307Z,20.99
2018-05-31T08:11:29.865Z,21.05
2018-05-31T08:12:30.425Z,21.07
2018-05-31T08:13:30.980Z,20.96
2018-05-31T08:14:31.545Z,20.98
2018-05-31T08:15:32.103Z,20.96
2018-05-31T08:16:32.664Z,21.06
2018-05-31T08:17:33.223Z,21.03
2018-05-31T08:18:33.783Z,21.06
2018-05-31T08:19:34.340Z,21.17
2018-05-31T08:20:34.944Z,21.21
2018-05-31T08:21:35.461Z,21.30
2018-05-31T08:22:36.021Z,21.30
2018-05-31T08:23:36.585Z,21.22
2018-05-31T08:24:37.348Z,21.30
2018-05-31T08:25:38.194Z,21.25
2018-05-31T08:26:38.758Z,21.35
2018-05-31T08:27:39.309Z,21.36
2018-05-31T08:28:39.870Z,21.32
2018-05-31T08:29:40.431Z,21.42
2018-05-31T08:30:40.994Z,21.45
2018-05-31T08:31:41.613Z,21.43
2018-05-31T08:32:42.105Z,21.37
2018-05-31T08:33:42.671Z,21.51
2018-05-31T08:34:43.227Z,21.52
2018-05-31T08:35:43.784Z,21.61
2018-05-31T08:36:44.356Z,21.62
2018-05-31T08:37:44.914Z,21.54
2018-05-31T08:38:45.471Z,21.54
2018-05-31T08:39:46.030Z,21.64
2018-05-31T08:40:46.580Z,21.54
2018-05-31T08:41:47.137Z,21.51
2018-05-31T08:42:47.699Z,21.42
2018-05-31T08:43:48.259Z,21.51
2018-05-31T08:44:48.815Z,21.40
2018-05-31T08:45:49.376Z,21.43
2018-05-31T08:46:49.925Z,21.51
2018-05-31T08:47:50.489Z,21.40
2018-05-31T08:48:51.050Z,21.52
2018-05-31T08:49:51.611Z,21.51
2018-05-31T08:50:52.170Z,21.52
2018-05-31T08:51:52.735Z,21.57
2018-05-31T08:52:53.295Z,21.65
2018-05-31T08:53:53.856Z,21.65
2018-05-31T08:54:54.415Z,21.69
2018-05-31T08:55:54.981Z,21.61
2018-05-31T08:56:55.537Z,21.75
2018-05-31T08:57:56.097Z,21.70
2018-05-31T08:58:56.651Z,21.75
2018-05-31T08:59:57.214Z,21.70
2018-05-31T09:00:57.775Z,21.73
2018-05-31T09:01:58.331Z,21.62
2018-05-31T09:02:58.897Z,21.57
2018-05-31T09:03:59.453Z,21.45
2018-05-31T09:05:00.007Z,21.33
2018-05-31T09:06:00.568Z,21.30
2018-05-31T09:07:01.130Z,21.33
2018-05-31T09:08:01.692Z,21.36
2018-05-31T09:09:02.251Z,21.40
2018-05-31T09:10:02.807Z,21.42
2018-05-31T09:11:03.367Z,21.51
2018-05-31T09:12:03.927Z,21.51
2018-05-31T09:13:04.486Z,21.69
2018-05-31T09:14:05.047Z,21.80
2018-05-31T09:15:05.639Z,21.92
2018-05-31T09:16:06.172Z,21.99
2018-05-31T09:17:06.736Z,22.05
2018-05-31T09:18:07.295Z,22.10
2018-05-31T09:19:07.858Z,22.14
2018-05-31T09:20:08.416Z,22.21
2018-05-31T09:21:08.982Z,22.14
2018-05-31T09:22:09.541Z,22.16
2018-05-31T09:23:10.107Z,22.03
2018-05-31T09:24:10.667Z,22.21
2018-05-31T09:25:11.225Z,22.21
2018-05-31T09:26:11.789Z,22.28
2018-05-31T09:27:12.352Z,22.23
2018-05-31T09:28:12.909Z,22.24
2018-05-31T09:29:13.468Z,22.08
2018-05-31T09:30:14.033Z,22.07
2018-05-31T09:31:14.584Z,22.08
2018-05-31T09:32:15.166Z,22.03
2018-05-31T09:33:15.717Z,21.95
2018-05-31T09:34:16.280Z,22.07
2018-05-31T09:35:16.847Z,22.08
2018-05-31T09:36:17.406Z,22.02
2018-05-31T09:37:17.961Z,22.08
2018-05-31T09:38:18.524Z,21.95
2018-05-31T09:39:19.083Z,21.98
2018-05-31T09:40:19.644Z,21.91
2018-05-31T09:41:20.205Z,21.96
2018-05-31T09:42:20.766Z,22.08
2018-05-31T09:43:21.324Z,21.92
2018-05-31T09:44:21.890Z,21.95
2018-05-31T09:45:22.453Z,21.92
2018-05-31T09:46:23.017Z,21.85
2018-05-31T09:47:23.575Z,21.92
2018-05-31T09:48:24.143Z,21.79
2018-05-31T09:49:24.702Z,21.91
2018-05-31T09:50:25.259Z,21.82
2018-05-31T09:51:25.819Z,21.61
2018-05-31T09:52:26.378Z,21.51
2018-05-31T09:53:26.944Z,21.45
2018-05-31T09:54:27.507Z,21.43
2018-05-31T09:55:28.066Z,21.33
2018-05-31T09:56:28.630Z,21.30
2018-05-31T09:57:29.187Z,21.25
2018-05-31T09:58:29.747Z,21.24
2018-05-31T09:59:30.308Z,21.22
2018-05-31T10:00:30.868Z,21.24
2018-05-31T10:01:31.432Z,21.15
2018-05-31T10:02:31.989Z,21.03
2018-05-31T10:03:32.550Z,20.96
2018-05-31T10:04:33.115Z,21.05
2018-05-31T10:05:33.673Z,20.98
2018-05-31T10:06:34.232Z,20.96
2018-05-31T10:07:34.787Z,21.02
2018-05-31T10:08:35.342Z,21.03
2018-05-31T10:09:35.903Z,20.96
2018-05-31T10:10:36.469Z,20.88
2018-05-31T10:11:37.029Z,20.96
2018-05-31T10:12:37.590Z,20.87
2018-05-31T10:13:38.152Z,20.98
2018-05-31T10:14:38.711Z,20.92
2018-05-31T10:15:39.268Z,20.96
2018-05-31T10:16:39.829Z,20.92
2018-05-31T10:17:40.393Z,20.99
2018-05-31T10:18:40.951Z,20.98
2018-05-31T10:19:41.510Z,21.05
2018-05-31T10:20:42.075Z,21.10
2018-05-31T10:21:42.627Z,21.05
2018-05-31T10:22:43.184Z,21.17
2018-05-31T10:23:43.741Z,21.25
2018-05-31T10:24:44.305Z,21.36
2018-05-31T10:25:44.866Z,21.37
2018-05-31T10:26:45.427Z,21.28
2018-05-31T10:27:45.989Z,21.30
2018-05-31T10:28:46.548Z,21.42
2018-05-31T10:29:47.120Z,21.40
2018-05-31T10:30:47.675Z,21.39
2018-05-31T10:31:48.256Z,21.43
2018-05-31T10:32:48.810Z,21.43
2018-05-31T10:33:49.391Z,21.47
2018-05-31T10:34:49.978Z,21.60
2018-05-31T10:35:50.563Z,21.72
2018-05-31T10:36:51.123Z,21.80
2018-05-31T10:37:51.818Z,21.92
2018-05-31T10:38:52.374Z,22.02
2018-05-31T10:39:52.939Z,21.96
2018-05-31T10:40:53.509Z,22.24
2018-05-31T10:41:54.065Z,22.38
2018-05-31T10:42:54.626Z,22.42
2018-05-31T10:43:55.188Z,22.54
2018-05-31T10:44:55.747Z,22.54
2018-05-31T10:45:56.312Z,22.66
2018-05-31T10:46:56.865Z,22.65
2018-05-31T10:47:57.429Z,22.62
2018-05-31T10:48:57.990Z,22.75
2018-05-31T10:49:58.550Z,22.66
2018-05-31T10:50:59.114Z,22.63
2018-05-31T10:51:59.679Z,22.58
2018-05-31T10:53:00.245Z,22.69
2018-05-31T10:54:00.831Z,22.79
2018-05-31T10:55:01.375Z,22.79
2018-05-31T10:56:01.941Z,22.76
2018-05-31T10:57:02.503Z,23.00
2018-05-31T10:58:03.084Z,23.20
2018-05-31T10:59:03.638Z,23.43
2018-05-31T11:00:04.208Z,23.69
2018-05-31T11:01:04.765Z,23.81
2018-05-31T11:02:05.327Z,23.99
2018-05-31T11:03:05.896Z,24.23
2018-05-31T11:04:06.463Z,24.45
2018-05-31T11:05:07.022Z,24.64
2018-05-31T11:06:07.590Z,24.89
2018-05-31T11:07:08.163Z,25.01
2018-05-31T11:08:08.739Z,25.32
2018-05-31T11:09:09.304Z,25.51
2018-05-31T11:10:09.872Z,25.68
2018-05-31T11:11:10.445Z,25.86
2018-05-31T11:12:11.012Z,26.13
2018-05-31T11:13:11.581Z,26.43
2018-05-31T11:14:12.154Z,26.62
2018-05-31T11:15:12.726Z,27.02
2018-05-31T11:16:13.301Z,27.30
2018-05-31T11:17:13.874Z,27.45
2018-05-31T11:18:14.445Z,27.45
2018-05-31T11:19:15.026Z,27.36
2018-05-31T11:20:15.593Z,27.43
2018-05-31T11:21:16.179Z,27.40
2018-05-31T11:22:16.748Z,27.32
2018-05-31T11:23:17.339Z,27.43
2018-05-31T11:24:17.911Z,27.47
2018-05-31T11:25:18.485Z,27.66
2018-05-31T11:26:19.071Z,27.99
2018-05-31T11:27:19.641Z,28.03
2018-05-31T11:28:20.217Z,27.81
2018-05-31T11:29:20.797Z,27.83
2018-05-31T11:30:21.373Z,27.74
2018-05-31T11:31:21.960Z,27.89
2018-05-31T11:32:22.528Z,27.93
2018-05-31T11:33:23.104Z,28.03
2018-05-31T11:34:23.687Z,27.90
2018-05-31T11:35:24.262Z,27.76
2018-05-31T11:36:24.843Z,27.89
2018-05-31T11:37:25.444Z,28.14
2018-05-31T11:38:26.039Z,28.32
2018-05-31T11:39:26.612Z,28.35
2018-05-31T11:40:27.188Z,28.57
2018-05-31T11:41:27.788Z,28.63
2018-05-31T11:42:28.364Z,29.10
2018-05-31T11:43:28.945Z,29.50
2018-05-31T11:44:29.561Z,29.99
2018-05-31T11:45:30.119Z,30.40
2018-05-31T11:46:30.718Z,30.83
2018-05-31T11:47:31.298Z,30.90
2018-05-31T11:48:31.873Z,30.51
2018-05-31T11:49:32.452Z,30.35
2018-05-31T11:50:33.050Z,30.50
2018-05-31T11:51:33.636Z,30.83
2018-05-31T11:52:34.255Z,31.17
2018-05-31T11:53:34.784Z,31.06
2018-05-31T11:54:35.361Z,31.03
2018-05-31T11:55:35.939Z,31.08
2018-05-31T11:56:36.508Z,31.08
2018-05-31T11:57:37.086Z,30.97
2018-05-31T11:58:37.664Z,30.84
2018-05-31T11:59:38.253Z,30.62
2018-05-31T12:00:38.825Z,30.56
2018-05-31T12:01:39.405Z,30.68
2018-05-31T12:02:39.972Z,30.54
2018-05-31T12:03:40.563Z,30.71
2018-05-31T12:04:41.116Z,30.75
2018-05-31T12:05:41.705Z,30.90
2018-05-31T12:06:42.275Z,31.45
2018-05-31T12:07:42.850Z,31.57
2018-05-31T12:08:43.422Z,31.79
2018-05-31T12:09:44.012Z,31.74
2018-05-31T12:10:44.634Z,31.62
2018-05-31T12:11:45.175Z,31.62
2018-05-31T12:12:45.750Z,31.84
2018-05-31T12:13:46.327Z,32.19
2018-05-31T12:14:46.909Z,32.49
2018-05-31T12:15:47.512Z,32.52
2018-05-31T12:16:48.084Z,32.47
2018-05-31T12:17:48.658Z,32.34
2018-05-31T12:18:49.231Z,32.40
2018-05-31T12:19:49.797Z,32.70
2018-05-31T12:20:50.373Z,32.76
2018-05-31T12:21:50.946Z,32.69
2018-05-31T12:22:51.527Z,32.43
2018-05-31T12:23:52.106Z,32.62
2018-05-31T12:24:52.684Z,32.49
2018-05-31T12:25:53.261Z,32.49
2018-05-31T12:26:53.836Z,32.39
2018-05-31T12:27:54.414Z,32.33
2018-05-31T12:28:54.994Z,32.37
2018-05-31T12:29:55.562Z,32.47
2018-05-31T12:30:56.144Z,32.51
2018-05-31T12:31:56.712Z,32.93
2018-05-31T12:32:57.290Z,33.11
2018-05-31T12:33:57.868Z,33.41
2018-05-31T12:36:13.906Z,33.43
2018-05-31T12:37:14.471Z,33.17
2018-05-31T12:38:15.050Z,33.22
2018-05-31T12:39:15.624Z,33.45
2018-05-31T12:40:16.200Z,33.49
2018-05-31T12:41:16.773Z,33.34
2018-05-31T12:42:17.350Z,33.22
2018-05-31T12:43:17.922Z,33.27
2018-05-31T12:44:18.490Z,33.31
2018-05-31T12:45:19.064Z,33.46
2018-05-31T12:46:19.640Z,33.72
2018-05-31T12:47:20.210Z,33.67
2018-05-31T12:48:20.782Z,33.56
2018-05-31T12:49:21.357Z,34.01
2018-05-31T12:50:21.934Z,34.21
2018-05-31T12:51:22.499Z,34.67
2018-05-31T12:52:23.075Z,34.61
2018-05-31T12:53:23.647Z,34.46
2018-05-31T12:54:24.221Z,34.27
2018-05-31T12:55:24.798Z,34.50
2018-05-31T12:56:25.365Z,34.57
2018-05-31T12:57:25.937Z,34.43
2018-05-31T12:58:26.522Z,34.53
2018-05-31T12:59:27.095Z,34.11
2018-05-31T13:00:27.663Z,33.63
2018-05-31T13:01:28.229Z,33.18